createdAt,value
2018-04-13T00:00:18.126Z,59.70
2018-04-13T00:01:18.144Z,60.30
2018-04-13T00:02:18.080Z,61.40
2018-04-13T00:03:18.157Z,60.80
2018-04-13T00:04:18.039Z,59.60
2018-04-13T00:05:18.069Z,59.60
2018-04-13T00:06:17.991Z,60.90
2018-04-13T00:07:17.982Z,64.70
2018-04-13T00:08:17.945Z,59.80
2018-04-13T00:09:17.995Z,61.10
2018-04-13T00:10:17.898Z,61.30
2018-04-13T00:11:17.909Z,62.70
2018-04-13T00:12:17.852Z,61.60
2018-04-13T00:13:17.920Z,58.70
2018-04-13T00:14:17.804Z,60.40
2018-04-13T00:15:17.833Z,57.80
2018-04-13T00:16:17.760Z,62.40
2018-04-13T00:17:17.848Z,57.90
2018-04-13T00:18:17.713Z,62.00
2018-04-13T00:19:17.761Z,63.60
2018-04-13T00:20:17.666Z,58.90
2018-04-13T00:21:17.672Z,59.50
2018-04-13T00:22:17.621Z,59.90
2018-04-13T00:23:17.685Z,57.40
2018-04-13T00:24:17.579Z,60.70
2018-04-13T00:25:17.605Z,65.20
2018-04-13T00:26:17.530Z,61.00
2018-04-13T00:27:17.612Z,59.10
2018-04-13T00:28:17.483Z,60.10
2018-04-13T00:29:17.523Z,62.30
2018-04-13T00:30:17.435Z,60.30
2018-04-13T00:31:17.433Z,56.10
2018-04-13T00:32:17.390Z,56.70
2018-04-13T00:33:17.452Z,63.00
2018-04-13T00:34:17.345Z,68.40
2018-04-13T00:35:17.360Z,61.20
2018-04-13T00:36:17.295Z,63.50
2018-04-13T00:37:17.379Z,62.90
2018-04-13T00:38:17.259Z,57.80
2018-04-13T00:39:17.285Z,59.50
2018-04-13T00:40:17.207Z,59.00
2018-04-13T00:41:17.200Z,58.90
2018-04-13T00:42:17.158Z,59.60
2018-04-13T00:43:17.211Z,58.40
2018-04-13T00:44:17.111Z,57.50
2018-04-13T00:45:17.122Z,58.40
2018-04-13T00:46:17.061Z,58.30
2018-04-13T00:47:17.136Z,57.60
2018-04-13T00:48:17.020Z,60.10
2018-04-13T00:49:17.051Z,58.80
2018-04-13T00:50:16.968Z,59.40
2018-04-13T00:51:16.960Z,57.80
2018-04-13T00:52:16.922Z,57.90
2018-04-13T00:53:16.975Z,59.70
2018-04-13T00:54:16.876Z,58.00
2018-04-13T00:55:16.889Z,57.60
2018-04-13T00:56:16.830Z,59.60
2018-04-13T00:57:16.898Z,61.10
2018-04-13T00:58:16.783Z,57.90
2018-04-13T00:59:16.812Z,58.30
2018-04-13T01:00:16.732Z,59.10
2018-04-13T01:01:16.722Z,57.70
2018-04-13T01:02:16.688Z,58.60
2018-04-13T01:03:16.736Z,57.70
2018-04-13T01:04:16.643Z,57.40
2018-04-13T01:05:16.650Z,70.30
2018-04-13T01:06:16.591Z,57.80
2018-04-13T01:07:16.661Z,57.50
2018-04-13T01:08:16.544Z,58.00
2018-04-13T01:09:16.575Z,58.10
2018-04-13T01:10:16.499Z,54.60
2018-04-13T01:11:16.587Z,59.90
2018-04-13T01:12:16.453Z,57.60
2018-04-13T01:13:16.505Z,58.00
2018-04-13T01:14:16.400Z,55.80
2018-04-13T01:15:16.520Z,56.20
2018-04-13T01:16:16.354Z,61.10
2018-04-13T01:17:16.424Z,64.30
2018-04-13T01:18:16.307Z,56.80
2018-04-13T01:19:16.341Z,59.80
2018-04-13T01:20:16.261Z,56.60
2018-04-13T01:21:16.349Z,58.60
2018-04-13T01:22:16.212Z,58.90
2018-04-13T01:23:16.272Z,58.20
2018-04-13T01:24:16.168Z,61.10
2018-04-13T01:25:16.179Z,61.40
2018-04-13T01:26:16.117Z,64.00
2018-04-13T01:27:16.195Z,65.60
2018-04-13T01:28:16.069Z,60.60
2018-04-13T01:29:16.100Z,58.00
2018-04-13T01:30:17.828Z,58.40
2018-04-13T01:31:16.015Z,63.20
2018-04-13T01:32:15.974Z,57.00
2018-04-13T01:33:16.031Z,55.20
2018-04-13T01:34:15.925Z,59.10
2018-04-13T01:35:15.940Z,57.70
2018-04-13T01:36:15.881Z,55.60
2018-04-13T01:37:15.953Z,55.00
2018-04-13T01:38:15.831Z,58.00
2018-04-13T01:39:16.071Z,56.80
2018-04-13T01:40:15.782Z,64.60
2018-04-13T01:41:15.776Z,58.30
2018-04-13T01:42:15.736Z,58.30
2018-04-13T01:43:15.793Z,60.90
2018-04-13T01:44:15.691Z,60.50
2018-04-13T01:45:15.705Z,58.10
2018-04-13T01:46:15.641Z,59.60
2018-04-13T01:47:15.715Z,71.30
2018-04-13T01:48:15.592Z,71.40
2018-04-13T01:49:15.630Z,72.50
2018-04-13T01:50:15.542Z,61.60
2018-04-13T01:51:15.542Z,61.60
2018-04-13T01:52:15.496Z,71.70
2018-04-13T01:53:15.551Z,75.00
2018-04-13T01:54:15.447Z,63.10
2018-04-13T01:55:15.463Z,66.00
2018-04-13T01:56:15.402Z,66.20
2018-04-13T01:57:15.479Z,69.60
2018-04-13T01:58:15.348Z,68.60
2018-04-13T01:59:15.390Z,65.10
2018-04-13T02:00:15.300Z,62.90
2018-04-13T02:01:15.298Z,74.00
2018-04-13T02:02:15.254Z,67.80
2018-04-13T02:03:15.314Z,76.90
2018-04-13T02:04:15.205Z,79.80
2018-04-13T02:05:15.228Z,84.80
2018-04-13T02:06:15.158Z,82.00
2018-04-13T02:07:15.237Z,76.50
2018-04-13T02:08:15.109Z,72.10
2018-04-13T02:09:15.151Z,73.40
2018-04-13T02:10:15.057Z,72.30
2018-04-13T02:11:15.061Z,72.90
2018-04-13T02:12:15.012Z,71.00
2018-04-13T02:13:15.075Z,72.80
2018-04-13T02:14:14.963Z,74.80
2018-04-13T02:15:14.986Z,76.10
2018-04-13T02:16:14.917Z,78.80
2018-04-13T02:17:14.899Z,74.70
2018-04-13T02:18:14.865Z,74.10
2018-04-13T02:19:14.914Z,78.00
2018-04-13T02:20:14.818Z,72.90
2018-04-13T02:21:14.827Z,69.80
2018-04-13T02:22:14.768Z,66.20
2018-04-13T02:23:14.840Z,67.80
2018-04-13T02:24:14.720Z,66.00
2018-04-13T02:25:14.748Z,68.60
2018-04-13T02:26:14.668Z,69.10
2018-04-13T02:27:14.662Z,60.10
2018-04-13T02:28:14.625Z,62.90
2018-04-13T02:29:14.675Z,63.70
2018-04-13T02:30:14.574Z,64.30
2018-04-13T02:31:14.590Z,66.30
2018-04-13T02:32:14.525Z,76.40
2018-04-13T02:33:14.603Z,71.40
2018-04-13T02:34:14.495Z,69.60
2018-04-13T02:35:14.513Z,62.00
2018-04-13T02:36:14.428Z,65.40
2018-04-13T02:37:14.426Z,65.10
2018-04-13T02:38:14.381Z,63.40
2018-04-13T02:39:14.440Z,65.50
2018-04-13T02:40:14.334Z,65.30
2018-04-13T02:41:14.351Z,67.80
2018-04-13T02:42:14.282Z,70.00
2018-04-13T02:43:14.365Z,71.00
2018-04-13T02:44:14.233Z,66.90
2018-04-13T02:45:14.277Z,65.60
2018-04-13T02:46:14.182Z,63.90
2018-04-13T02:47:14.189Z,62.40
2018-04-13T02:48:14.138Z,66.80
2018-04-13T02:49:14.203Z,61.00
2018-04-13T02:50:14.087Z,63.80
2018-04-13T02:51:14.116Z,61.90
2018-04-13T02:52:14.038Z,59.70
2018-04-13T02:53:14.024Z,59.20
2018-04-13T02:54:13.991Z,62.60
2018-04-13T02:55:14.045Z,60.40
2018-04-13T02:56:13.939Z,56.90
2018-04-13T02:57:13.953Z,58.20
2018-04-13T02:58:13.890Z,55.80
2018-04-13T02:59:13.966Z,56.00
2018-04-13T03:00:13.845Z,54.70
2018-04-13T03:01:13.875Z,55.30
2018-04-13T03:02:13.794Z,53.10
2018-04-13T03:03:13.787Z,52.80
2018-04-13T03:04:13.743Z,51.70
2018-04-13T03:05:13.800Z,52.40
2018-04-13T03:06:13.694Z,52.20
2018-04-13T03:07:13.712Z,50.80
2018-04-13T03:08:13.645Z,51.10
2018-04-13T03:09:13.729Z,49.00
2018-04-13T03:10:13.593Z,49.30
2018-04-13T03:11:13.639Z,48.70
2018-04-13T03:12:13.543Z,47.30
2018-04-13T03:13:13.549Z,46.30
2018-04-13T03:14:13.498Z,47.70
2018-04-13T03:15:13.565Z,48.60
2018-04-13T03:16:13.452Z,49.30
2018-04-13T03:17:13.477Z,50.80
2018-04-13T03:18:13.399Z,52.70
2018-04-13T03:19:13.386Z,52.90
2018-04-13T03:20:13.352Z,50.00
2018-04-13T03:21:13.403Z,52.70
2018-04-13T03:22:13.299Z,49.90
2018-04-13T03:23:13.315Z,50.80
2018-04-13T03:24:13.253Z,49.90
2018-04-13T03:25:13.334Z,51.60
2018-04-13T03:26:13.205Z,53.30
2018-04-13T03:27:13.237Z,49.00
2018-04-13T03:28:13.152Z,50.80
2018-04-13T03:29:13.144Z,51.80
2018-04-13T03:30:13.106Z,52.10
2018-04-13T03:31:13.169Z,51.40
2018-04-13T03:32:13.053Z,50.80
2018-04-13T03:33:13.076Z,50.90
2018-04-13T03:34:13.001Z,54.00
2018-04-13T03:35:13.093Z,52.40
2018-04-13T03:36:15.234Z,48.60
2018-04-13T03:37:13.009Z,48.00
2018-04-13T03:38:12.904Z,46.30
2018-04-13T03:39:12.911Z,49.00
2018-04-13T03:40:12.854Z,47.40
2018-04-13T03:41:12.931Z,46.50
2018-04-13T03:42:12.806Z,46.40
2018-04-13T03:43:12.843Z,45.20
2018-04-13T03:44:12.760Z,45.50
2018-04-13T03:45:12.753Z,46.70
2018-04-13T03:46:12.705Z,45.30
2018-04-13T03:47:12.841Z,46.70
2018-04-13T03:48:12.655Z,46.00
2018-04-13T03:49:12.679Z,46.20
2018-04-13T03:50:12.609Z,46.80
2018-04-13T03:51:12.693Z,47.20
2018-04-13T03:52:12.556Z,47.60
2018-04-13T03:53:12.608Z,51.40
2018-04-13T03:54:12.509Z,54.90
2018-04-13T03:55:12.515Z,58.90
2018-04-13T03:56:12.460Z,63.40
2018-04-13T03:57:12.530Z,60.50
2018-04-13T03:58:12.406Z,63.50
2018-04-13T03:59:12.446Z,64.20
2018-04-13T04:00:12.358Z,63.30
2018-04-13T04:01:12.352Z,63.80
2018-04-13T04:02:12.340Z,62.90
2018-04-13T04:03:12.366Z,62.50
2018-04-13T04:04:12.255Z,60.70
2018-04-13T04:05:12.283Z,59.50
2018-04-13T04:06:12.207Z,60.80
2018-04-13T04:07:12.293Z,60.60
2018-04-13T04:08:12.156Z,61.40
2018-04-13T04:09:12.203Z,59.30
2018-04-13T04:10:12.106Z,56.80
2018-04-13T04:11:12.113Z,59.50
2018-04-13T04:12:12.055Z,57.40
2018-04-13T04:13:12.127Z,58.00
2018-04-13T04:14:12.009Z,57.80
2018-04-13T04:15:12.040Z,56.60
2018-04-13T04:16:11.950Z,56.00
2018-04-13T04:17:11.951Z,55.70
2018-04-13T04:18:11.914Z,57.60
2018-04-13T04:19:11.964Z,56.90
2018-04-13T04:20:11.850Z,54.50
2018-04-13T04:21:11.876Z,54.00
2018-04-13T04:22:11.796Z,52.10
2018-04-13T04:23:11.790Z,52.00
2018-04-13T04:24:11.796Z,50.60
2018-04-13T04:25:11.800Z,52.80
2018-04-13T04:26:11.698Z,51.10
2018-04-13T04:27:11.714Z,51.50
2018-04-13T04:28:11.646Z,48.50
2018-04-13T04:29:11.728Z,49.50
2018-04-13T04:30:11.598Z,47.70
2018-04-13T04:31:11.641Z,49.10
2018-04-13T04:32:11.543Z,47.50
2018-04-13T04:33:11.550Z,45.50
2018-04-13T04:34:11.495Z,46.50
2018-04-13T04:35:11.473Z,47.10
2018-04-13T04:36:11.468Z,47.00
2018-04-13T04:37:11.416Z,47.10
2018-04-13T04:38:11.484Z,45.60
2018-04-13T04:39:11.366Z,45.60
2018-04-13T04:40:11.346Z,44.80
2018-04-13T04:41:11.315Z,44.30
2018-04-13T04:42:11.306Z,42.90
2018-04-13T04:43:11.264Z,44.40
2018-04-13T04:44:11.314Z,42.70
2018-04-13T04:45:11.214Z,41.80
2018-04-13T04:46:11.232Z,42.00
2018-04-13T04:47:11.161Z,43.40
2018-04-13T04:48:11.247Z,40.60
2018-04-13T04:49:11.115Z,39.30
2018-04-13T04:50:11.157Z,40.10
2018-04-13T04:51:11.065Z,39.50
2018-04-13T04:52:11.069Z,42.20
2018-04-13T04:53:11.010Z,39.90
2018-04-13T04:54:11.086Z,38.70
2018-04-13T04:55:10.962Z,39.80
2018-04-13T04:56:11.006Z,39.60
2018-04-13T04:57:10.912Z,38.60
2018-04-13T04:58:10.909Z,38.10
2018-04-13T04:59:10.859Z,38.40
2018-04-13T05:00:10.921Z,39.60
2018-04-13T05:01:10.809Z,39.50
2018-04-13T05:02:10.833Z,41.20
2018-04-13T05:03:10.757Z,40.00
2018-04-13T05:04:10.746Z,37.90
2018-04-13T05:05:10.709Z,40.30
2018-04-13T05:06:10.764Z,39.70
2018-04-13T05:07:10.658Z,40.60
2018-04-13T05:08:10.672Z,43.40
2018-04-13T05:09:10.606Z,42.50
2018-04-13T05:10:10.685Z,43.80
2018-04-13T05:11:10.555Z,47.80
2018-04-13T05:12:10.598Z,49.00
2018-04-13T05:13:10.507Z,44.40
2018-04-13T05:14:10.508Z,44.70
2018-04-13T05:15:10.455Z,46.20
2018-04-13T05:16:10.525Z,45.30
2018-04-13T05:17:10.409Z,47.40
2018-04-13T05:18:10.434Z,44.40
2018-04-13T05:19:10.355Z,43.50
2018-04-13T05:20:10.345Z,45.40
2018-04-13T05:21:10.305Z,43.20
2018-04-13T05:22:10.379Z,44.40
2018-04-13T05:23:10.253Z,42.40
2018-04-13T05:24:10.292Z,42.60
2018-04-13T05:25:10.201Z,40.90
2018-04-13T05:26:10.285Z,42.70
2018-04-13T05:27:10.149Z,40.50
2018-04-13T05:28:10.199Z,41.20
2018-04-13T05:29:10.102Z,40.00
2018-04-13T05:30:10.111Z,40.70
2018-04-13T05:31:10.050Z,40.00
2018-04-13T05:32:10.129Z,40.30
2018-04-13T05:33:09.999Z,41.40
2018-04-13T05:34:10.037Z,42.30
2018-04-13T05:35:09.960Z,41.80
2018-04-13T05:36:09.951Z,43.30
2018-04-13T05:37:09.904Z,42.10
2018-04-13T05:38:09.963Z,41.60
2018-04-13T05:39:09.850Z,43.10
2018-04-13T05:40:09.873Z,42.60
2018-04-13T05:41:09.801Z,41.10
2018-04-13T05:42:09.890Z,39.30
2018-04-13T05:43:09.748Z,41.90
2018-04-13T05:44:09.802Z,40.20
2018-04-13T05:45:09.696Z,40.90
2018-04-13T05:46:09.746Z,39.90
2018-04-13T05:47:09.650Z,41.30
2018-04-13T05:48:09.726Z,39.90
2018-04-13T05:49:09.609Z,39.70
2018-04-13T05:50:09.640Z,39.00
2018-04-13T05:51:09.547Z,39.50
2018-04-13T05:52:09.550Z,38.10
2018-04-13T05:53:09.504Z,37.50
2018-04-13T05:54:09.568Z,37.30
2018-04-13T05:55:09.451Z,38.80
2018-04-13T05:56:09.476Z,38.80
2018-04-13T05:57:09.401Z,38.50
2018-04-13T05:58:09.390Z,40.30
2018-04-13T05:59:09.347Z,41.30
2018-04-13T06:00:09.439Z,41.10
2018-04-13T06:01:09.296Z,42.20
2018-04-13T06:02:09.316Z,42.10
2018-04-13T06:03:09.245Z,42.70
2018-04-13T06:04:09.336Z,43.90
2018-04-13T06:05:09.192Z,42.30
2018-04-13T06:06:09.250Z,43.00
2018-04-13T06:07:09.143Z,42.80
2018-04-13T06:08:09.150Z,43.20
2018-04-13T06:09:09.093Z,44.00
2018-04-13T06:10:09.157Z,42.50
2018-04-13T06:11:09.042Z,42.70
2018-04-13T06:12:11.023Z,43.00
2018-04-13T06:13:08.993Z,43.10
2018-04-13T06:14:08.988Z,42.90
2018-04-13T06:15:08.938Z,42.80
2018-04-13T06:16:09.000Z,41.80
2018-04-13T06:17:08.891Z,42.00
2018-04-13T06:18:08.912Z,43.20
2018-04-13T06:19:08.844Z,41.40
2018-04-13T06:20:08.925Z,42.80
2018-04-13T06:21:08.792Z,43.70
2018-04-13T06:22:08.836Z,42.80
2018-04-13T06:23:08.741Z,42.40
2018-04-13T06:24:08.749Z,42.70
2018-04-13T06:25:08.697Z,42.30
2018-04-13T06:26:08.763Z,40.90
2018-04-13T06:27:08.647Z,39.60
2018-04-13T06:28:08.676Z,39.60
2018-04-13T06:29:08.591Z,38.80
2018-04-13T06:30:08.698Z,38.50
2018-04-13T06:31:08.543Z,39.10
2018-04-13T06:32:08.600Z,37.30
2018-04-13T06:33:08.542Z,37.40
2018-04-13T06:34:08.510Z,36.50
2018-04-13T06:35:08.443Z,37.60
2018-04-13T06:36:08.525Z,38.20
2018-04-13T06:37:08.402Z,38.10
2018-04-13T06:38:08.435Z,39.10
2018-04-13T06:39:08.346Z,39.20
2018-04-13T06:40:08.350Z,38.10
2018-04-13T06:41:08.296Z,39.60
2018-04-13T06:42:08.363Z,40.90
2018-04-13T06:43:08.247Z,42.70
2018-04-13T06:44:08.272Z,43.10
2018-04-13T06:45:08.195Z,43.80
2018-04-13T06:46:08.287Z,41.80
2018-04-13T06:47:08.148Z,42.30
2018-04-13T06:48:08.200Z,41.10
2018-04-13T06:49:08.099Z,40.70
2018-04-13T06:50:08.120Z,39.80
2018-04-13T06:51:08.053Z,39.20
2018-04-13T06:52:08.124Z,39.50
2018-04-13T06:53:08.002Z,39.50
2018-04-13T06:54:08.036Z,38.50
2018-04-13T06:55:07.953Z,37.60
2018-04-13T06:56:07.956Z,39.80
2018-04-13T06:57:07.908Z,37.40
2018-04-13T06:58:07.891Z,38.00
2018-04-13T06:59:07.861Z,39.30
2018-04-13T07:00:07.873Z,40.50
2018-04-13T07:01:07.807Z,40.00
2018-04-13T07:02:07.888Z,40.50
2018-04-13T07:03:07.760Z,40.90
2018-04-13T07:04:07.799Z,40.70
2018-04-13T07:05:07.710Z,40.10
2018-04-13T07:06:07.711Z,40.40
2018-04-13T07:07:07.663Z,42.00
2018-04-13T07:08:07.725Z,40.90
2018-04-13T07:09:07.619Z,41.30
2018-04-13T07:10:07.640Z,40.70
2018-04-13T07:11:07.568Z,40.40
2018-04-13T07:12:07.650Z,42.90
2018-04-13T07:13:07.522Z,41.60
2018-04-13T07:14:07.565Z,44.00
2018-04-13T07:15:07.472Z,42.20
2018-04-13T07:16:07.476Z,42.00
2018-04-13T07:17:07.424Z,40.60
2018-04-13T07:18:07.488Z,41.10
2018-04-13T07:19:07.380Z,41.80
2018-04-13T07:20:07.403Z,40.70
2018-04-13T07:21:07.331Z,40.50
2018-04-13T07:22:07.417Z,41.00
2018-04-13T07:23:07.283Z,40.70
2018-04-13T07:24:07.335Z,39.70
2018-04-13T07:25:07.232Z,41.20
2018-04-13T07:26:07.237Z,41.40
2018-04-13T07:27:07.185Z,40.30
2018-04-13T07:28:07.165Z,40.00
2018-04-13T07:29:07.155Z,41.20
2018-04-13T07:30:07.138Z,39.00
2018-04-13T07:31:07.173Z,40.30
2018-04-13T07:32:07.073Z,40.50
2018-04-13T07:33:07.531Z,40.00
2018-04-13T07:34:07.088Z,40.70
2018-04-13T07:35:07.095Z,41.40
2018-04-13T07:36:07.449Z,41.70
2018-04-13T07:37:07.007Z,42.10
2018-04-13T07:38:06.925Z,40.70
2018-04-13T07:39:06.917Z,40.90
2018-04-13T07:40:06.891Z,40.10
2018-04-13T07:41:06.933Z,40.40
2018-04-13T07:42:06.835Z,40.60
2018-04-13T07:43:06.845Z,38.70
2018-04-13T07:44:06.790Z,39.90
2018-04-13T07:45:06.858Z,40.60
2018-04-13T07:46:06.743Z,38.80
2018-04-13T07:47:07.015Z,39.40
2018-04-13T07:48:06.700Z,40.50
2018-04-13T07:49:06.784Z,38.90
2018-04-13T07:50:07.137Z,39.30
2018-04-13T07:51:06.702Z,39.00
2018-04-13T07:52:06.804Z,38.80
2018-04-13T07:53:06.607Z,39.60
2018-04-13T07:54:06.558Z,39.30
2018-04-13T07:55:06.620Z,40.20
2018-04-13T07:56:06.511Z,40.20
2018-04-13T07:57:06.532Z,39.80
2018-04-13T07:58:06.468Z,39.10
2018-04-13T07:59:06.548Z,40.20
2018-04-13T08:00:06.421Z,39.80
2018-04-13T08:01:06.459Z,37.80
2018-04-13T08:02:06.376Z,37.40
2018-04-13T08:03:06.371Z,37.70
2018-04-13T08:04:06.332Z,37.10
2018-04-13T08:05:06.387Z,38.40
2018-04-13T08:06:06.285Z,37.10
2018-04-13T08:07:06.523Z,38.20
2018-04-13T08:08:06.238Z,37.80
2018-04-13T08:09:06.315Z,38.60
2018-04-13T08:10:06.197Z,39.40
2018-04-13T08:11:06.397Z,39.30
2018-04-13T08:12:06.152Z,37.20
2018-04-13T08:13:06.239Z,38.90
2018-04-13T08:14:06.103Z,37.90
2018-04-13T08:15:06.328Z,36.90
2018-04-13T08:16:06.077Z,36.20
2018-04-13T08:17:06.065Z,35.30
2018-04-13T08:18:06.016Z,35.60
2018-04-13T08:19:06.076Z,36.50
2018-04-13T08:21:45.638Z,35.40
2018-04-13T08:22:37.564Z,34.70
2018-04-13T08:24:31.023Z,33.20
2018-04-13T08:25:30.927Z,32.20
2018-04-13T08:27:23.821Z,32.00
2018-04-13T08:28:23.841Z,32.30
2018-04-13T08:30:16.752Z,32.80
2018-04-13T08:31:16.633Z,30.90
2018-04-13T08:33:09.583Z,28.60
2018-04-13T08:34:09.486Z,29.10
2018-04-13T08:36:02.439Z,28.30
2018-04-13T08:37:02.337Z,29.30
2018-04-13T08:38:55.319Z,30.40
2018-04-13T08:39:55.194Z,30.20
2018-04-13T08:41:48.144Z,27.00
2018-04-13T08:42:48.049Z,27.70
2018-04-13T08:44:40.991Z,25.70
2018-04-13T08:45:40.897Z,24.80
2018-04-13T08:47:33.845Z,25.10
2018-04-13T08:48:33.807Z,24.50
2018-04-13T08:50:26.695Z,24.70
2018-04-13T08:51:26.602Z,24.80
2018-04-13T08:53:19.548Z,24.10
2018-04-13T08:54:19.457Z,23.90
2018-04-13T08:56:12.401Z,23.40
2018-04-13T08:57:12.309Z,23.50
2018-04-13T08:59:05.259Z,23.20
2018-04-13T09:00:05.160Z,23.30
2018-04-13T09:01:58.107Z,23.50
2018-04-13T09:02:58.014Z,23.50
2018-04-13T09:04:50.960Z,22.90
2018-04-13T09:05:50.870Z,23.10
2018-04-13T09:07:43.812Z,23.70
2018-04-13T09:08:43.738Z,23.30
2018-04-13T09:10:36.667Z,22.90
2018-04-13T09:11:36.574Z,22.70
2018-04-13T09:13:29.519Z,23.10
2018-04-13T09:14:29.429Z,22.90
2018-04-13T09:16:22.373Z,21.40
2018-04-13T09:17:22.279Z,20.90
2018-04-13T09:19:15.227Z,21.40
2018-04-13T09:20:15.132Z,20.70
2018-04-13T09:22:08.078Z,17.30
2018-04-13T09:23:07.988Z,17.30
2018-04-13T09:25:00.907Z,17.10
2018-04-13T09:26:00.839Z,16.50
2018-04-13T09:27:53.806Z,15.30
2018-04-13T09:28:53.692Z,15.00
2018-04-13T09:30:46.655Z,14.40
2018-04-13T09:31:46.548Z,14.90
2018-04-13T09:33:39.490Z,14.70
2018-04-13T09:34:39.413Z,15.20
2018-04-13T09:36:32.340Z,14.30
2018-04-13T09:37:32.282Z,14.60
2018-04-13T09:39:25.193Z,14.50
2018-04-13T09:40:25.106Z,14.20
2018-04-13T09:42:18.045Z,14.30
2018-04-13T09:43:17.958Z,14.10
2018-04-13T09:45:10.903Z,13.60
2018-04-13T09:46:10.822Z,12.90
2018-04-13T09:48:03.756Z,12.30
2018-04-13T09:49:03.664Z,13.00
2018-04-13T09:50:56.554Z,12.60
2018-04-13T09:51:56.516Z,11.80
2018-04-13T09:53:49.461Z,11.10
2018-04-13T09:54:49.369Z,10.10
2018-04-13T09:56:42.312Z,10.40
2018-04-13T09:57:42.226Z,10.50
2018-04-13T09:59:35.117Z,10.60
2018-04-13T10:00:35.077Z,10.30
2018-04-13T10:02:28.121Z,10.10
2018-04-13T10:03:28.042Z,10.00
2018-04-13T10:05:20.979Z,9.40
2018-04-13T10:06:20.891Z,10.30
2018-04-13T10:08:13.827Z,9.90
2018-04-13T10:09:13.736Z,9.90
2018-04-13T10:11:06.688Z,9.20
2018-04-13T10:12:06.590Z,9.20
2018-04-13T10:13:59.475Z,8.90
2018-04-13T10:14:59.517Z,8.40
2018-04-13T10:16:52.390Z,9.20
2018-04-13T10:17:52.301Z,8.70
2018-04-13T10:19:45.241Z,8.40
2018-04-13T10:20:45.157Z,8.60
2018-04-13T10:22:38.097Z,8.20
2018-04-13T10:23:38.017Z,8.70
2018-04-13T10:25:30.949Z,8.20
2018-04-13T10:26:30.858Z,8.50
2018-04-13T10:28:23.800Z,8.60
2018-04-13T10:29:23.709Z,8.80
2018-04-13T10:31:16.654Z,9.40
2018-04-13T10:32:16.564Z,8.90
2018-04-13T10:34:09.503Z,10.70
2018-04-13T10:35:09.415Z,9.50
2018-04-13T10:37:02.358Z,8.80
2018-04-13T10:38:02.270Z,9.30
2018-04-13T10:39:55.210Z,9.00
2018-04-13T10:40:55.121Z,8.90
2018-04-13T10:42:48.070Z,9.60
2018-04-13T10:43:47.977Z,8.80
2018-04-13T10:45:40.922Z,9.50
2018-04-13T10:46:40.818Z,9.00
2018-04-13T10:48:33.768Z,9.30
2018-04-13T10:49:33.678Z,8.90
2018-04-13T10:51:26.624Z,9.10
2018-04-13T10:52:26.535Z,9.40
2018-04-13T10:54:19.414Z,9.40
2018-04-13T10:55:19.386Z,8.60
2018-04-13T10:57:12.331Z,7.60
2018-04-13T10:58:12.237Z,7.40
2018-04-13T11:00:05.186Z,7.00
2018-04-13T11:01:05.091Z,7.10
2018-04-13T11:02:58.040Z,8.30
2018-04-13T11:03:57.944Z,8.40
2018-04-13T11:05:50.833Z,7.30
2018-04-13T11:06:50.797Z,6.90
2018-04-13T11:08:43.720Z,6.40
2018-04-13T11:09:43.678Z,6.30
2018-04-13T11:11:36.553Z,6.50
2018-04-13T11:12:36.513Z,6.10
2018-04-13T11:14:29.415Z,6.50
2018-04-13T11:15:29.386Z,6.40
2018-04-13T11:17:22.318Z,6.50
2018-04-13T11:18:22.220Z,6.40
2018-04-13T11:20:15.079Z,6.30
2018-04-13T11:21:15.047Z,6.10
2018-04-13T11:23:07.943Z,6.50
2018-04-13T11:24:07.883Z,6.10
2018-04-13T11:26:00.743Z,6.30
2018-04-13T11:27:00.751Z,6.10
2018-04-13T11:28:53.622Z,6.70
2018-04-13T11:29:53.601Z,6.40
2018-04-13T11:31:46.580Z,6.20
2018-04-13T11:32:46.486Z,6.20
2018-04-13T11:34:39.359Z,6.10
2018-04-13T11:35:39.321Z,6.00
2018-04-13T11:37:32.270Z,6.00
2018-04-13T11:38:32.152Z,6.40
2018-04-13T11:40:25.068Z,5.80
2018-04-13T11:41:25.039Z,5.80
2018-04-13T11:43:17.976Z,6.10
2018-04-13T11:44:17.889Z,5.90
2018-04-13T11:46:10.825Z,5.60
2018-04-13T11:47:10.743Z,5.90
2018-04-13T11:49:03.678Z,5.80
2018-04-13T11:50:03.574Z,5.10
2018-04-13T11:51:56.549Z,5.30
2018-04-13T11:52:56.408Z,5.20
2018-04-13T11:54:49.378Z,5.50
2018-04-13T11:55:49.247Z,5.40
2018-04-13T11:57:42.185Z,5.20
2018-04-13T11:58:42.145Z,5.00
2018-04-13T12:00:35.078Z,5.00
2018-04-13T12:01:34.995Z,5.00
2018-04-13T12:03:27.935Z,5.00
2018-04-13T12:04:27.844Z,5.10
2018-04-13T12:06:20.783Z,5.50
2018-04-13T12:07:20.694Z,5.70
2018-04-13T12:09:13.633Z,6.00
2018-04-13T12:10:13.547Z,6.30
2018-04-13T12:12:06.486Z,6.40
2018-04-13T12:13:06.396Z,6.30
2018-04-13T12:14:59.719Z,6.90
2018-04-13T12:15:59.249Z,6.40
2018-04-13T12:17:52.213Z,7.00
2018-04-13T12:18:52.120Z,7.10
2018-04-13T12:20:45.068Z,7.40
2018-04-13T12:21:44.974Z,7.20
2018-04-13T12:23:37.917Z,7.60
2018-04-13T12:24:37.826Z,7.50
2018-04-13T12:26:30.772Z,8.50
2018-04-13T12:27:30.753Z,8.20
2018-04-13T12:29:23.626Z,7.90
2018-04-13T12:30:23.534Z,7.30
2018-04-13T12:32:16.478Z,8.10
2018-04-13T12:33:16.387Z,7.90
2018-04-13T12:35:09.333Z,8.30
2018-04-13T12:36:09.242Z,8.40
2018-04-13T12:38:02.188Z,8.80
2018-04-13T12:39:02.092Z,8.50
2018-04-13T12:40:55.041Z,10.30
2018-04-13T12:41:54.958Z,9.90
2018-04-13T12:43:47.891Z,9.80
2018-04-13T12:44:47.799Z,9.30
2018-04-13T12:46:40.745Z,11.00
2018-04-13T12:47:40.650Z,10.90
2018-04-13T12:49:33.594Z,12.20
2018-04-13T12:50:33.506Z,13.10
2018-04-13T12:52:26.446Z,13.30
2018-04-13T12:53:26.364Z,14.10
2018-04-13T12:55:19.380Z,15.00
2018-04-13T12:56:19.246Z,15.20
2018-04-13T12:58:12.154Z,16.00
2018-04-13T12:59:12.066Z,15.40
2018-04-13T13:01:04.951Z,16.40
2018-04-13T13:02:04.917Z,16.30
2018-04-13T13:03:57.865Z,16.10
2018-04-13T13:04:57.774Z,16.30
2018-04-13T13:06:50.711Z,16.00
2018-04-13T13:07:50.635Z,16.50
2018-04-13T13:09:43.673Z,17.20
2018-04-13T13:10:43.479Z,16.40
2018-04-13T13:12:36.416Z,15.90
2018-04-13T13:13:36.331Z,17.30
2018-04-13T13:15:29.217Z,16.80
2018-04-13T13:16:29.254Z,17.10
2018-04-13T13:18:22.124Z,16.70
2018-04-13T13:19:22.040Z,16.20
2018-04-13T13:21:14.980Z,16.90
2018-04-13T13:22:14.887Z,17.20
2018-04-13T13:24:07.833Z,17.50
2018-04-13T13:25:07.741Z,17.50
2018-04-13T13:27:00.624Z,17.20
2018-04-13T13:28:00.594Z,17.70
2018-04-13T13:29:53.545Z,17.00
2018-04-13T13:30:53.445Z,16.20
2018-04-13T13:32:46.393Z,16.70
2018-04-13T13:33:46.305Z,17.40
2018-04-13T13:35:39.193Z,16.60
2018-04-13T13:36:39.225Z,16.20
2018-04-13T13:38:32.098Z,18.00
2018-04-13T13:39:32.011Z,17.80
2018-04-13T13:41:24.951Z,18.70
2018-04-13T13:42:24.876Z,18.80
2018-04-13T13:44:17.803Z,18.10
2018-04-13T13:45:17.715Z,18.00
2018-04-13T13:47:10.756Z,18.40
2018-04-13T13:48:10.669Z,18.50
2018-04-13T13:50:03.613Z,19.60
2018-04-13T13:51:03.521Z,19.90
2018-04-13T13:52:56.462Z,20.00
2018-04-13T13:53:56.548Z,19.50
2018-04-13T13:55:49.829Z,18.70
2018-04-13T13:56:49.633Z,19.10
2018-04-13T13:57:49.819Z,18.40
2018-04-13T13:58:49.723Z,18.70
2018-04-13T13:59:49.576Z,19.00
2018-04-13T14:00:49.735Z,18.80
2018-04-13T14:01:49.536Z,19.20
2018-04-13T14:02:49.544Z,18.90
2018-04-13T14:03:49.496Z,19.70
2018-04-13T14:04:49.563Z,18.30
2018-04-13T14:05:49.457Z,19.30
2018-04-13T14:06:49.495Z,19.10
2018-04-13T14:07:49.420Z,18.40
2018-04-13T14:08:49.488Z,19.00
2018-04-13T14:09:49.491Z,18.70
2018-04-13T14:10:49.361Z,19.10
2018-04-13T14:11:49.407Z,19.20
2018-04-13T14:12:49.320Z,19.40
2018-04-13T14:13:49.319Z,19.20
2018-04-13T14:14:49.312Z,19.60
2018-04-13T14:15:49.336Z,19.50
2018-04-13T14:16:49.244Z,19.70
2018-04-13T14:17:49.240Z,20.10
2018-04-13T14:18:49.202Z,20.70
2018-04-13T14:19:49.261Z,20.20
2018-04-13T14:20:49.166Z,20.60
2018-04-13T14:21:50.013Z,19.40
2018-04-13T14:22:49.124Z,21.10
2018-04-13T14:23:49.182Z,20.90
2018-04-13T14:24:49.087Z,20.00
2018-04-13T14:25:49.099Z,20.60
2018-04-13T14:26:49.644Z,20.50
2018-04-13T14:27:49.110Z,20.50
2018-04-13T14:28:49.010Z,21.00
2018-04-13T14:29:49.024Z,21.10
2018-04-13T14:30:48.965Z,21.70
2018-04-13T14:31:49.037Z,20.50
2018-04-13T14:32:48.927Z,21.10
2018-04-13T14:33:49.608Z,20.50
2018-04-13T14:34:48.884Z,20.40
2018-04-13T14:35:48.961Z,20.80
2018-04-13T14:36:48.849Z,20.10
2018-04-13T14:37:48.978Z,20.70
2018-04-13T14:38:48.804Z,20.00
2018-04-13T14:39:48.788Z,20.30